Junco do Serido, Brazil
Current Conditions -  °F | °C
As of 10:00 AM on Sunday 23 Nov 2014 (Local Time) from SBKG Reporting Station
Broken Clouds Broken Clouds  
Wind Chill: 81°   Ceiling: 4000
Heat Index: 82°   Visibility: 6mi
Dew Point: 63°   Wind: 13mph
Humidity: 54%   Direction: 100°E
Pressure: 30"   Gusts: NA
Location:  7°S, 36.71°W
Report Text: SBKG 231300Z 10011KT 9999 BKN040 27/17 Q1016
Loading
Personal Weather Stations






























Interactive Weather Map New forecast layout! Learn more

10-Day Weather Forecast

Advertisements
Track Severe Weather on mobile